Time;durP1;ratioP1;P1;durP2;ratioP2;P2;SDS_P1;SDS_P2;PMS_P1;PMS_P2;Temp;Humidity;BMP_temperature;BMP_pressure;BME280_temperature;BME280_humidity;BME280_pressure;Samples;Min_cycle;Max_cycle;Signal;HPM_P1;HPM_P2
2022/07/07 00:01:40;;;;;;;;;;;;;;;;;;5023117;28;20418;-85
2022/07/07 00:04:05;;;;;;;;;;;;;;;;;;5016156;28;19946;-87
2022/07/07 00:06:30;;;;;;;;;;;;;;;;;;5018516;28;19913;-85
2022/07/07 00:08:55;;;;;;;;;;;;;;;;;;5020749;28;19971;-87
2022/07/07 00:11:21;;;;;;;;;;;;;;;;;;5020728;28;19933;-87
2022/07/07 00:13:46;;;;;;;;;;;;;;;;;;5016103;28;20394;-85
2022/07/07 00:16:11;;;;;;;;;;;;;;;;;;5019502;28;20490;-86
2022/07/07 00:18:36;;;;;;;;;;;;;;;;;;5017254;28;19921;-86
2022/07/07 00:21:01;;;;;;;;;;;;;;;;;;5019959;28;19921;-85
2022/07/07 00:23:26;;;;;;;;;;;;;;;;;;5017579;28;20418;-85
2022/07/07 00:25:52;;;;;;;;;;;;;;;;;;5019164;28;19913;-86
2022/07/07 00:28:17;;;;;;;;;;;;;;;;;;5023032;28;20311;-87
2022/07/07 00:30:42;;;;;;;;;;;;;;;;;;5020645;28;19917;-85
2022/07/07 00:33:07;;;;;;;;;;;;;;;;;;5020277;28;19913;-85
2022/07/07 00:35:32;;;;;;;;;;;;;;;;;;5020931;28;19922;-86
2022/07/07 00:37:57;;;;;;;;;;;;;;;;;;5023731;28;19936;-85
2022/07/07 00:40:23;;;;;;;;;;;;;;;;;;5021566;28;19917;-85
2022/07/07 00:42:48;;;;;;;;;;;;;;;;;;5023628;28;19928;-85
2022/07/07 00:45:13;;;;;;;;;;;;;;;;;;5017503;28;19925;-87
2022/07/07 00:47:40;;;;;;;;;;;;;;;;;;5019894;28;19994;-86
2022/07/07 00:50:05;;;;;;;;;;;;;;;;;;5015721;28;20099;-86
2022/07/07 00:52:30;;;;;;;;;;;;;;;;;;5007269;28;19917;-85
2022/07/07 00:54:55;;;;;;;;;;;;;;;;;;5021305;28;20012;-86
2022/07/07 00:57:21;;;;;;;;;;;;;;;;;;5020467;28;20207;-85
2022/07/07 00:59:46;;;;;;;;;;;;;;;;;;5019812;28;20004;-85
2022/07/07 01:02:11;;;;;;;;;;;;;;;;;;5023341;28;19924;-86
2022/07/07 01:04:36;;;;;;;;;;;;;;;;;;5015777;28;20750;-85
2022/07/07 01:07:01;;;;;;;;;;;;;;;;;;5015701;28;19956;-86
2022/07/07 01:09:26;;;;;;;;;;;;;;;;;;5015714;28;19947;-86
2022/07/07 01:11:52;;;;;;;;;;;;;;;;;;5020968;28;19925;-85
2022/07/07 01:14:17;;;;;;;;;;;;;;;;;;5018656;28;19921;-86
2022/07/07 01:16:42;;;;;;;;;;;;;;;;;;5012252;28;19918;-85
2022/07/07 01:19:07;;;;;;;;;;;;;;;;;;5017863;28;19913;-85
2022/07/07 01:21:32;;;;;;;;;;;;;;;;;;5002931;28;19966;-86
2022/07/07 01:23:58;;;;;;;;;;;;;;;;;;5018005;28;19921;-86
2022/07/07 01:26:23;;;;;;;;;;;;;;;;;;5019193;28;19909;-86
2022/07/07 01:28:48;;;;;;;;;;;;;;;;;;5017285;28;20302;-85
2022/07/07 01:31:13;;;;;;;;;;;;;;;;;;5019256;28;19935;-86
2022/07/07 01:33:38;;;;;;;;;;;;;;;;;;5016294;28;20342;-85
2022/07/07 01:36:04;;;;;;;;;;;;;;;;;;5016004;28;19925;-86
2022/07/07 01:38:29;;;;;;;;;;;;;;;;;;5017718;28;20389;-85
2022/07/07 01:40:54;;;;;;;;;;;;;;;;;;5017760;28;19919;-86
2022/07/07 01:43:19;;;;;;;;;;;;;;;;;;5015142;28;19917;-86
2022/07/07 01:45:44;;;;;;;;;;;;;;;;;;5014899;28;19921;-85
2022/07/07 01:48:09;;;;;;;;;;;;;;;;;;5015373;28;19927;-86
2022/07/07 01:50:35;;;;;;;;;;;;;;;;;;5017064;28;19987;-85
2022/07/07 01:53:00;;;;;;;;;;;;;;;;;;5013511;28;20605;-86
2022/07/07 01:55:25;;;;;;;;;;;;;;;;;;5018536;28;19917;-86
2022/07/07 01:57:50;;;;;;;;;;;;;;;;;;5016430;28;20651;-86
2022/07/07 02:00:16;;;;;;;;;;;;;;;;;;5000217;28;20020;-85
2022/07/07 02:02:41;;;;;;;;;;;;;;;;;;5015369;28;20260;-86
2022/07/07 02:05:06;;;;;;;;;;;;;;;;;;5015393;28;19913;-86
2022/07/07 02:07:31;;;;;;;;;;;;;;;;;;5016245;28;19913;-86
2022/07/07 02:09:56;;;;;;;;;;;;;;;;;;5011609;28;20465;-85
2022/07/07 02:12:21;;;;;;;;;;;;;;;;;;5016196;28;20000;-86
2022/07/07 02:14:47;;;;;;;;;;;;;;;;;;5015436;28;20367;-85
2022/07/07 02:17:12;;;;;;;;;;;;;;;;;;5015883;28;20012;-86
2022/07/07 02:19:37;;;;;;;;;;;;;;;;;;5014465;28;20398;-85
2022/07/07 02:22:02;;;;;;;;;;;;;;;;;;5014475;28;19971;-84
2022/07/07 02:24:27;;;;;;;;;;;;;;;;;;5014906;28;19925;-85
2022/07/07 02:26:52;;;;;;;;;;;;;;;;;;5012460;28;20375;-86
2022/07/07 02:29:18;;;;;;;;;;;;;;;;;;5016681;28;19917;-86
2022/07/07 02:31:43;;;;;;;;;;;;;;;;;;5012102;28;19921;-85
2022/07/07 02:34:08;;;;;;;;;;;;;;;;;;5014850;28;20058;-85
2022/07/07 02:36:34;;;;;;;;;;;;;;;;;;5016488;28;19928;-86
2022/07/07 02:38:59;;;;;;;;;;;;;;;;;;5016601;28;19920;-85
2022/07/07 02:41:24;;;;;;;;;;;;;;;;;;5020264;28;19925;-86
2022/07/07 02:43:49;;;;;;;;;;;;;;;;;;5012331;28;20386;-86
2022/07/07 02:46:17;;;;;;;;;;;;;;;;;;5015930;28;19924;-86
2022/07/07 02:48:42;;;;;;;;;;;;;;;;;;5014719;28;19913;-85
2022/07/07 02:51:08;;;;;;;;;;;;;;;;;;5020344;28;19932;-85
2022/07/07 02:53:34;;;;;;;;;;;;;;;;;;5015226;28;19975;-85
2022/07/07 02:55:59;;;;;;;;;;;;;;;;;;5017250;28;19916;-85
2022/07/07 02:58:24;;;;;;;;;;;;;;;;;;5014010;28;19913;-85
2022/07/07 03:00:49;;;;;;;;;;;;;;;;;;5018066;28;20263;-85
2022/07/07 03:03:14;;;;;;;;;;;;;;;;;;5018132;28;19998;-86
2022/07/07 03:05:40;;;;;;;;;;;;;;;;;;5017932;28;19976;-85
2022/07/07 03:08:05;;;;;;;;;;;;;;;;;;5021117;28;19928;-85
2022/07/07 03:10:30;;;;;;;;;;;;;;;;;;5016815;28;19940;-86
2022/07/07 03:12:56;;;;;;;;;;;;;;;;;;5014886;28;19988;-86
2022/07/07 03:15:21;;;;;;;;;;;;;;;;;;5004866;28;20200;-86
2022/07/07 03:17:46;;;;;;;;;;;;;;;;;;5004275;28;19999;-86
2022/07/07 03:20:11;;;;;;;;;;;;;;;;;;5018558;28;19917;-86
2022/07/07 03:22:36;;;;;;;;;;;;;;;;;;5014806;28;20366;-85
2022/07/07 03:25:02;;;;;;;;;;;;;;;;;;5019629;28;19972;-86
2022/07/07 03:27:27;;;;;;;;;;;;;;;;;;5011561;28;19917;-85
2022/07/07 03:29:52;;;;;;;;;;;;;;;;;;5015527;28;19964;-85
2022/07/07 03:32:17;;;;;;;;;;;;;;;;;;5016718;28;20276;-86
2022/07/07 03:34:43;;;;;;;;;;;;;;;;;;5006821;28;20004;-86
2022/07/07 03:37:08;;;;;;;;;;;;;;;;;;5018635;28;19989;-85
2022/07/07 03:39:33;;;;;;;;;;;;;;;;;;5017091;28;20390;-85
2022/07/07 03:41:58;;;;;;;;;;;;;;;;;;5021788;28;19943;-86
2022/07/07 03:44:23;;;;;;;;;;;;;;;;;;5019125;28;19959;-86
2022/07/07 03:46:48;;;;;;;;;;;;;;;;;;5018709;28;19914;-86
2022/07/07 03:49:14;;;;;;;;;;;;;;;;;;5022288;28;19955;-86
2022/07/07 03:51:39;;;;;;;;;;;;;;;;;;5021122;28;20008;-85
2022/07/07 03:54:04;;;;;;;;;;;;;;;;;;5019780;28;20406;-86
2022/07/07 03:56:29;;;;;;;;;;;;;;;;;;5019461;28;19914;-86
2022/07/07 03:58:54;;;;;;;;;;;;;;;;;;5023290;28;19922;-87
2022/07/07 04:01:19;;;;;;;;;;;;;;;;;;5015574;28;19914;-86
2022/07/07 04:03:45;;;;;;;;;;;;;;;;;;5018853;28;19918;-85
2022/07/07 04:06:10;;;;;;;;;;;;;;;;;;5021337;28;19913;-85
2022/07/07 04:08:35;;;;;;;;;;;;;;;;;;5019111;28;19917;-85
2022/07/07 04:11:00;;;;;;;;;;;;;;;;;;5017963;28;19933;-86
2022/07/07 04:13:25;;;;;;;;;;;;;;;;;;5017369;28;19917;-86
2022/07/07 04:15:51;;;;;;;;;;;;;;;;;;5017069;28;19924;-85
2022/07/07 04:18:16;;;;;;;;;;;;;;;;;;5020305;28;19924;-86
2022/07/07 04:20:41;;;;;;;;;;;;;;;;;;5018471;28;20279;-86
2022/07/07 04:23:06;;;;;;;;;;;;;;;;;;5020755;28;20016;-86
2022/07/07 04:25:31;;;;;;;;;;;;;;;;;;5020506;28;19928;-86
2022/07/07 04:27:57;;;;;;;;;;;;;;;;;;5019654;28;20271;-86
2022/07/07 04:30:22;;;;;;;;;;;;;;;;;;5016582;28;19920;-86
2022/07/07 04:32:47;;;;;;;;;;;;;;;;;;5021238;28;19913;-87
2022/07/07 04:35:12;;;;;;;;;;;;;;;;;;5025383;28;19917;-86
2022/07/07 04:37:38;;;;;;;;;;;;;;;;;;5020740;28;20381;-86
2022/07/07 04:40:03;;;;;;;;;;;;;;;;;;5023205;28;20019;-87
2022/07/07 04:42:28;;;;;;;;;;;;;;;;;;5023964;28;19917;-86
2022/07/07 04:44:53;;;;;;;;;;;;;;;;;;5019802;28;19913;-86
2022/07/07 04:47:18;;;;;;;;;;;;;;;;;;5015885;28;19921;-87
2022/07/07 04:49:44;;;;;;;;;;;;;;;;;;5024807;28;19918;-86
2022/07/07 04:52:09;;;;;;;;;;;;;;;;;;5020844;28;19914;-86
2022/07/07 04:54:34;;;;;;;;;;;;;;;;;;5018190;28;19917;-86
2022/07/07 04:56:59;;;;;;;;;;;;;;;;;;5024566;28;19913;-85
2022/07/07 04:59:24;;;;;;;;;;;;;;;;;;5021828;28;19960;-86
2022/07/07 05:01:49;;;;;;;;;;;;;;;;;;5019150;28;19913;-87
2022/07/07 05:04:15;;;;;;;;;;;;;;;;;;5020689;28;20454;-88
2022/07/07 05:06:40;;;;;;;;;;;;;;;;;;5021808;28;20338;-86
2022/07/07 05:09:05;;;;;;;;;;;;;;;;;;5025143;28;20341;-86
2022/07/07 05:11:30;;;;;;;;;;;;;;;;;;5019973;28;20024;-85
2022/07/07 05:13:55;;;;;;;;;;;;;;;;;;5023791;28;20133;-87
2022/07/07 05:16:20;;;;;;;;;;;;;;;;;;5018616;28;19913;-87
2022/07/07 05:18:46;;;;;;;;;;;;;;;;;;5020457;28;19955;-86
2022/07/07 05:21:11;;;;;;;;;;;;;;;;;;5017207;28;19920;-86
2022/07/07 05:23:36;;;;;;;;;;;;;;;;;;5019715;28;19940;-87
2022/07/07 05:26:04;;;;;;;;;;;;;;;;;;5022011;28;20383;-87
2022/07/07 05:28:29;;;;;;;;;;;;;;;;;;5018584;28;19914;-87
2022/07/07 05:30:55;;;;;;;;;;;;;;;;;;5007953;28;20015;-86
2022/07/07 05:33:20;;;;;;;;;;;;;;;;;;5014527;28;20020;-87
2022/07/07 05:35:45;;;;;;;;;;;;;;;;;;5019650;28;20488;-86
2022/07/07 05:38:10;;;;;;;;;;;;;;;;;;5019576;28;19963;-88
2022/07/07 05:40:36;;;;;;;;;;;;;;;;;;5016180;28;20509;-87
2022/07/07 05:43:01;;;;;;;;;;;;;;;;;;5020099;28;19925;-89
2022/07/07 05:45:26;;;;;;;;;;;;;;;;;;5019593;28;20421;-87
2022/07/07 05:47:51;;;;;;;;;;;;;;;;;;5022847;28;20379;-86
2022/07/07 05:50:16;;;;;;;;;;;;;;;;;;5015916;28;20593;-87
2022/07/07 05:52:42;;;;;;;;;;;;;;;;;;5017295;28;19914;-87
2022/07/07 05:55:07;;;;;;;;;;;;;;;;;;5005701;28;19913;-86
2022/07/07 05:57:32;;;;;;;;;;;;;;;;;;5018894;28;19918;-87
2022/07/07 05:59:57;;;;;;;;;;;;;;;;;;5016339;28;19944;-87
2022/07/07 06:02:23;;;;;;;;;;;;;;;;;;5014974;28;19925;-87
2022/07/07 06:04:48;;;;;;;;;;;;;;;;;;5016658;28;20383;-86
2022/07/07 06:07:13;;;;;;;;;;;;;;;;;;5021001;28;19921;-87
2022/07/07 06:09:41;;;;;;;;;;;;;;;;;;5017065;28;20275;-87
2022/07/07 06:12:06;;;;;;;;;;;;;;;;;;5017461;28;20295;-88
2022/07/07 06:14:31;;;;;;;;;;;;;;;;;;5019796;28;19924;-87
2022/07/07 06:16:57;;;;;;;;;;;;;;;;;;5016094;28;19999;-87
2022/07/07 06:19:22;;;;;;;;;;;;;;;;;;5017723;28;19920;-88
2022/07/07 06:21:47;;;;;;;;;;;;;;;;;;5013704;28;19921;-87
2022/07/07 06:24:12;;;;;;;;;;;;;;;;;;5014251;28;19921;-87
2022/07/07 06:26:37;;;;;;;;;;;;;;;;;;5019572;28;19925;-87
2022/07/07 06:29:03;;;;;;;;;;;;;;;;;;5021112;28;20383;-86
2022/07/07 06:31:28;;;;;;;;;;;;;;;;;;5019499;28;20161;-87
2022/07/07 06:33:53;;;;;;;;;;;;;;;;;;5021580;28;19913;-87
2022/07/07 06:36:18;;;;;;;;;;;;;;;;;;5018314;28;20321;-87
2022/07/07 06:38:44;;;;;;;;;;;;;;;;;;5014860;28;19914;-87
2022/07/07 06:41:09;;;;;;;;;;;;;;;;;;5008026;28;19955;-87
2022/07/07 06:43:34;;;;;;;;;;;;;;;;;;5016775;28;20071;-87
2022/07/07 06:46:00;;;;;;;;;;;;;;;;;;5015778;28;19917;-90
2022/07/07 06:48:25;;;;;;;;;;;;;;;;;;5019142;28;20371;-88
2022/07/07 06:50:50;;;;;;;;;;;;;;;;;;5015725;28;19918;-88
2022/07/07 06:53:15;;;;;;;;;;;;;;;;;;5012861;28;19929;-88
2022/07/07 06:55:43;;;;;;;;;;;;;;;;;;5022772;28;19917;-87
2022/07/07 06:58:08;;;;;;;;;;;;;;;;;;5013355;28;19960;-87
2022/07/07 07:00:33;;;;;;;;;;;;;;;;;;5017378;28;19951;-88
2022/07/07 07:02:58;;;;;;;;;;;;;;;;;;5023690;28;19917;-87
2022/07/07 07:05:23;;;;;;;;;;;;;;;;;;5019046;28;20314;-88
2022/07/07 07:07:49;;;;;;;;;;;;;;;;;;5014764;28;20009;-86
2022/07/07 07:10:14;;;;;;;;;;;;;;;;;;5013355;28;20272;-86
2022/07/07 07:12:39;;;;;;;;;;;;;;;;;;5018016;28;20371;-86
2022/07/07 07:15:04;;;;;;;;;;;;;;;;;;5015746;28;20012;-87
2022/07/07 07:17:30;;;;;;;;;;;;;;;;;;5004763;28;20342;-88
2022/07/07 07:19:55;;;;;;;;;;;;;;;;;;5014600;28;19918;-88
2022/07/07 07:22:20;;;;;;;;;;;;;;;;;;5000969;28;20020;-87
2022/07/07 07:24:45;;;;;;;;;;;;;;;;;;5014593;28;19913;-87
2022/07/07 07:27:10;;;;;;;;;;;;;;;;;;5014420;28;19959;-88
2022/07/07 07:29:43;;;;;;;;;;;;;;;;;;5016003;28;20376;-86
2022/07/07 07:32:08;;;;;;;;;;;;;;;;;;5013107;28;19991;-86
2022/07/07 07:34:34;;;;;;;;;;;;;;;;;;5018538;28;20076;-86
2022/07/07 07:36:59;;;;;;;;;;;;;;;;;;5016347;28;19920;-87
2022/07/07 07:39:24;;;;;;;;;;;;;;;;;;5011880;28;20033;-87
2022/07/07 07:41:49;;;;;;;;;;;;;;;;;;5013658;28;20371;-87
2022/07/07 07:45:09;;;;;;;;;;;;;;;;;;5013736;28;19921;-87
2022/07/07 07:47:00;;;;;;;;;;;;;;;;;;5011734;28;19913;-87
2022/07/07 07:49:25;;;;;;;;;;;;;;;;;;5016695;28;19925;-87
2022/07/07 07:51:50;;;;;;;;;;;;;;;;;;5017236;28;20427;-87
2022/07/07 07:54:15;;;;;;;;;;;;;;;;;;5012799;28;19921;-89
2022/07/07 07:56:40;;;;;;;;;;;;;;;;;;5013388;28;19935;-87
2022/07/07 07:59:06;;;;;;;;;;;;;;;;;;5017976;28;19995;-87
2022/07/07 08:01:31;;;;;;;;;;;;;;;;;;5010617;28;19921;-87
2022/07/07 08:03:56;;;;;;;;;;;;;;;;;;5019279;28;19971;-87
2022/07/07 08:06:21;;;;;;;;;;;;;;;;;;5016892;28;20351;-87
2022/07/07 08:08:49;;;;;;;;;;;;;;;;;;5017081;28;20462;-88
2022/07/07 08:11:16;;;;;;;;;;;;;;;;;;5016521;28;19921;-87
2022/07/07 08:13:50;;;;;;;;;;;;;;;;;;5015637;28;19917;-87
2022/07/07 08:16:18;;;;;;;;;;;;;;;;;;5011372;28;19928;-87
2022/07/07 08:18:43;;;;;;;;;;;;;;;;;;5007840;28;19917;-88
2022/07/07 08:21:09;;;;;;;;;;;;;;;;;;5018093;28;20049;-88
2022/07/07 08:23:34;;;;;;;;;;;;;;;;;;5015990;28;19992;-88
2022/07/07 08:25:59;;;;;;;;;;;;;;;;;;5023290;28;19913;-87
2022/07/07 08:28:24;;;;;;;;;;;;;;;;;;5023811;28;19925;-87
2022/07/07 08:30:49;;;;;;;;;;;;;;;;;;5019639;28;20000;-88
2022/07/07 08:33:16;;;;;;;;;;;;;;;;;;5003014;28;19920;-87
2022/07/07 08:35:44;;;;;;;;;;;;;;;;;;5024409;28;20299;-89
2022/07/07 08:38:09;;;;;;;;;;;;;;;;;;5026567;28;19940;-88
2022/07/07 08:40:34;;;;;;;;;;;;;;;;;;5019705;28;20362;-88
2022/07/07 08:42:59;;;;;;;;;;;;;;;;;;5023112;28;19960;-87
2022/07/07 08:45:25;;;;;;;;;;;;;;;;;;5017263;28;20433;-87
2022/07/07 08:47:50;;;;;;;;;;;;;;;;;;5023799;28;19917;-89
2022/07/07 08:50:15;;;;;;;;;;;;;;;;;;5024097;28;19940;-88
2022/07/07 08:52:40;;;;;;;;;;;;;;;;;;5015876;28;20011;-87
2022/07/07 08:55:06;;;;;;;;;;;;;;;;;;5020770;28;20008;-88
2022/07/07 08:57:31;;;;;;;;;;;;;;;;;;5019819;28;19952;-88
2022/07/07 08:59:56;;;;;;;;;;;;;;;;;;5019198;28;19913;-88
2022/07/07 09:02:21;;;;;;;;;;;;;;;;;;5014323;28;19983;-88
2022/07/07 09:04:49;;;;;;;;;;;;;;;;;;5021184;28;20363;-88
2022/07/07 09:07:14;;;;;;;;;;;;;;;;;;5020720;28;20362;-88
2022/07/07 09:09:39;;;;;;;;;;;;;;;;;;5024131;28;20020;-87
2022/07/07 09:12:04;;;;;;;;;;;;;;;;;;5020710;28;19920;-88
2022/07/07 09:14:32;;;;;;;;;;;;;;;;;;5017538;28;19924;-88
2022/07/07 09:16:58;;;;;;;;;;;;;;;;;;5019700;28;20016;-88
2022/07/07 09:19:29;;;;;;;;;;;;;;;;;;5017758;28;20422;-89
2022/07/07 09:21:54;;;;;;;;;;;;;;;;;;5017600;28;19917;-88
2022/07/07 09:24:19;;;;;;;;;;;;;;;;;;5017091;28;19959;-88
2022/07/07 09:26:44;;;;;;;;;;;;;;;;;;5023148;28;19917;-88
2022/07/07 09:29:10;;;;;;;;;;;;;;;;;;5016954;28;20010;-88
2022/07/07 09:31:43;;;;;;;;;;;;;;;;;;5018571;28;19928;-87
2022/07/07 09:34:10;;;;;;;;;;;;;;;;;;5018693;28;20004;-88
2022/07/07 09:39:19;;;;;;;;;;;;;;;;;;5023343;28;19920;-88
2022/07/07 09:41:44;;;;;;;;;;;;;;;;;;5022918;28;19913;-87
2022/07/07 09:44:09;;;;;;;;;;;;;;;;;;5004251;28;20315;-87
2022/07/07 09:46:34;;;;;;;;;;;;;;;;;;5020982;28;20004;-88
2022/07/07 09:48:59;;;;;;;;;;;;;;;;;;5022068;28;19913;-87
2022/07/07 09:51:25;;;;;;;;;;;;;;;;;;5019707;28;19921;-87
2022/07/07 09:53:50;;;;;;;;;;;;;;;;;;5022708;28;19913;-87
2022/07/07 09:56:15;;;;;;;;;;;;;;;;;;5004599;28;19913;-88
2022/07/07 09:58:40;;;;;;;;;;;;;;;;;;5019178;28;20012;-89
2022/07/07 10:01:06;;;;;;;;;;;;;;;;;;5021021;28;19917;-88
2022/07/07 10:03:31;;;;;;;;;;;;;;;;;;5022943;28;19917;-88
2022/07/07 10:05:56;;;;;;;;;;;;;;;;;;5025688;28;19914;-88
2022/07/07 10:08:21;;;;;;;;;;;;;;;;;;5021377;28;19921;-88
2022/07/07 10:10:46;;;;;;;;;;;;;;;;;;5022971;28;19917;-89
2022/07/07 10:13:12;;;;;;;;;;;;;;;;;;5003292;28;19917;-88
2022/07/07 10:15:37;;;;;;;;;;;;;;;;;;5023644;28;19979;-89
2022/07/07 10:18:05;;;;;;;;;;;;;;;;;;5018931;28;19921;-88
2022/07/07 10:20:30;;;;;;;;;;;;;;;;;;5018867;28;19920;-88
2022/07/07 10:22:55;;;;;;;;;;;;;;;;;;5019536;28;19917;-89
2022/07/07 10:25:20;;;;;;;;;;;;;;;;;;5018279;28;19917;-89
2022/07/07 10:27:46;;;;;;;;;;;;;;;;;;5027282;28;19924;-88
2022/07/07 10:30:23;;;;;;;;;;;;;;;;;;5019328;28;19917;-87
2022/07/07 10:33:01;;;;;;;;;;;;;;;;;;5022970;28;19964;-88
2022/07/07 10:38:15;;;;;;;;;;;;;;;;;;5018691;28;19913;-87
2022/07/07 10:40:45;;;;;;;;;;;;;;;;;;5021199;28;20314;-87
2022/07/07 10:43:13;;;;;;;;;;;;;;;;;;4999118;28;19921;-88
2022/07/07 10:45:52;;;;;;;;;;;;;;;;;;5016841;28;20569;-88
2022/07/07 10:48:38;;;;;;;;;;;;;;;;;;5021980;28;19921;-88
2022/07/07 10:51:02;;;;;;;;;;;;;;;;;;5019266;28;19914;-89
2022/07/07 10:56:34;;;;;;;;;;;;;;;;;;5002396;28;19914;-88
2022/07/07 10:59:08;;;;;;;;;;;;;;;;;;5020269;28;19913;-89
2022/07/07 11:01:35;;;;;;;;;;;;;;;;;;5021300;28;19924;-89
2022/07/07 11:07:01;;;;;;;;;;;;;;;;;;4959553;28;20784;-89
2022/07/07 11:09:28;;;;;;;;;;;;;;;;;;4962794;28;19914;-88
2022/07/07 11:12:11;;;;;;;;;;;;;;;;;;4961185;28;20167;-88
2022/07/07 11:14:36;;;;;;;;;;;;;;;;;;4977637;28;19921;-88
2022/07/07 11:17:04;;;;;;;;;;;;;;;;;;5022740;28;19925;-88
2022/07/07 11:19:29;;;;;;;;;;;;;;;;;;5015374;28;19951;-88
2022/07/07 11:21:54;;;;;;;;;;;;;;;;;;5002249;28;20374;-88
2022/07/07 11:24:35;;;;;;;;;;;;;;;;;;;;;
2022/07/07 11:27:17;;;;;;;;;;;;;;;;;;;;;
2022/07/07 11:32:46;;;;;;;;;;;;;;;;;;5018465;28;19936;-87
2022/07/07 11:35:35;;;;;;;;;;;;;;;;;;5017043;28;20383;-88
2022/07/07 11:40:48;;;;;;;;;;;;;;;;;;5016959;28;19929;-87
2022/07/07 11:43:13;;;;;;;;;;;;;;;;;;5010485;28;19926;-87
2022/07/07 11:45:39;;;;;;;;;;;;;;;;;;5010732;28;20368;-86
2022/07/07 11:48:05;;;;;;;;;;;;;;;;;;5013667;28;19918;-86
2022/07/07 11:50:35;;;;;;;;;;;;;;;;;;5015495;28;20387;-86
2022/07/07 11:53:16;;;;;;;;;;;;;;;;;;5012492;28;19939;-86
2022/07/07 11:55:59;;;;;;;;;;;;;;;;;;5012396;28;19964;-86
2022/07/07 11:58:30;;;;;;;;;;;;;;;;;;5014927;28;19922;-86
2022/07/07 12:00:55;;;;;;;;;;;;;;;;;;5015002;28;20383;-86
2022/07/07 12:06:12;;;;;;;;;;;;;;;;;;5012277;28;19953;-86
2022/07/07 12:08:47;;;;;;;;;;;;;;;;;;5012330;28;20008;-86
2022/07/07 12:11:18;;;;;;;;;;;;;;;;;;5015116;28;19928;-86
2022/07/07 12:13:43;;;;;;;;;;;;;;;;;;5015943;28;19921;-86
2022/07/07 12:16:08;;;;;;;;;;;;;;;;;;5021580;28;19921;-86
2022/07/07 12:18:49;;;;;;;;;;;;;;;;;;5017465;28;21278;-85
2022/07/07 12:21:15;;;;;;;;;;;;;;;;;;5017187;28;19943;-85
2022/07/07 12:23:40;;;;;;;;;;;;;;;;;;5018274;28;19956;-86
2022/07/07 12:26:06;;;;;;;;;;;;;;;;;;5017520;28;20157;-85
2022/07/07 12:31:15;;;;;;;;;;;;;;;;;;5019180;28;19924;-86
2022/07/07 12:33:40;;;;;;;;;;;;;;;;;;5019139;28;19918;-85
2022/07/07 12:36:11;;;;;;;;;;;;;;;;;;5018869;28;19928;-86
2022/07/07 12:50:16;;;;;;;;;;;;;;;;;;4938019;28;20414;-85
2022/07/07 12:52:41;;;;;;;;;;;;;;;;;;4939228;28;19970;-86
2022/07/07 12:55:06;;;;;;;;;;;;;;;;;;4947836;28;19914;-86
2022/07/07 12:57:31;;;;;;;;;;;;;;;;;;4957624;28;20395;-86
2022/07/07 12:59:56;;;;;;;;;;;;;;;;;;5005698;28;19956;-86
2022/07/07 13:02:21;;;;;;;;;;;;;;;;;;5018877;28;19917;-87
2022/07/07 13:04:47;;;;;;;;;;;;;;;;;;5017281;28;19920;-85
2022/07/07 13:07:12;;;;;;;;;;;;;;;;;;5020296;28;19917;-85
2022/07/07 13:09:38;;;;;;;;;;;;;;;;;;5013590;28;19924;-86
2022/07/07 13:12:03;;;;;;;;;;;;;;;;;;5016947;28;20290;-86
2022/07/07 13:14:29;;;;;;;;;;;;;;;;;;5018891;28;19921;-86
2022/07/07 13:16:54;;;;;;;;;;;;;;;;;;5016881;28;19914;-85
2022/07/07 13:19:19;;;;;;;;;;;;;;;;;;5020806;28;19970;-85
2022/07/07 13:21:44;;;;;;;;;;;;;;;;;;5014749;28;19917;-86
2022/07/07 13:24:10;;;;;;;;;;;;;;;;;;5019695;28;19917;-85
2022/07/07 13:26:35;;;;;;;;;;;;;;;;;;5014326;28;19952;-87
2022/07/07 13:29:00;;;;;;;;;;;;;;;;;;5013475;28;19921;-85
2022/07/07 13:31:25;;;;;;;;;;;;;;;;;;5015695;28;20291;-84
2022/07/07 13:33:50;;;;;;;;;;;;;;;;;;5015880;28;20004;-85
2022/07/07 13:36:15;;;;;;;;;;;;;;;;;;5013005;28;19910;-85
2022/07/07 13:38:41;;;;;;;;;;;;;;;;;;5017380;28;19917;-86
2022/07/07 13:41:06;;;;;;;;;;;;;;;;;;5020457;28;19913;-85
2022/07/07 13:43:33;;;;;;;;;;;;;;;;;;5016941;28;19971;-85
2022/07/07 13:45:59;;;;;;;;;;;;;;;;;;5011681;28;19914;-85
2022/07/07 13:48:24;;;;;;;;;;;;;;;;;;5016476;28;19916;-85
2022/07/07 13:50:50;;;;;;;;;;;;;;;;;;5018471;28;19921;-85
2022/07/07 13:53:15;;;;;;;;;;;;;;;;;;5020815;28;20286;-86
2022/07/07 13:55:40;;;;;;;;;;;;;;;;;;5009632;28;19921;-86
2022/07/07 13:58:05;;;;;;;;;;;;;;;;;;5019429;28;20031;-87
2022/07/07 14:00:30;;;;;;;;;;;;;;;;;;5018952;28;19910;-85
2022/07/07 14:02:56;;;;;;;;;;;;;;;;;;5013708;28;19941;-85
2022/07/07 14:05:21;;;;;;;;;;;;;;;;;;5016053;28;19917;-85
2022/07/07 14:07:46;;;;;;;;;;;;;;;;;;5018028;28;19975;-87
2022/07/07 14:10:13;;;;;;;;;;;;;;;;;;5019529;28;19960;-86
2022/07/07 14:12:39;;;;;;;;;;;;;;;;;;5018002;28;20276;-86
2022/07/07 14:15:04;;;;;;;;;;;;;;;;;;5020603;28;19932;-85
2022/07/07 14:17:29;;;;;;;;;;;;;;;;;;5017710;28;20362;-86
2022/07/07 14:19:55;;;;;;;;;;;;;;;;;;5013259;28;19913;-87
2022/07/07 14:22:20;;;;;;;;;;;;;;;;;;5017125;28;19913;-86
2022/07/07 14:24:45;;;;;;;;;;;;;;;;;;5022767;28;20020;-85
2022/07/07 14:27:10;;;;;;;;;;;;;;;;;;5016292;28;19925;-85
2022/07/07 14:29:36;;;;;;;;;;;;;;;;;;5018608;28;20008;-87
2022/07/07 14:32:01;;;;;;;;;;;;;;;;;;5018444;28;19929;-85
2022/07/07 14:34:26;;;;;;;;;;;;;;;;;;5029181;28;19921;-86
2022/07/07 14:36:51;;;;;;;;;;;;;;;;;;5018431;28;20441;-86
2022/07/07 14:39:16;;;;;;;;;;;;;;;;;;5019225;28;19920;-85
2022/07/07 14:41:41;;;;;;;;;;;;;;;;;;5023796;28;19920;-85
2022/07/07 14:44:09;;;;;;;;;;;;;;;;;;5017940;28;22037;-86
2022/07/07 14:46:34;;;;;;;;;;;;;;;;;;5018384;28;20448;-85
2022/07/07 14:48:59;;;;;;;;;;;;;;;;;;5018017;28;20005;-85
2022/07/07 14:51:24;;;;;;;;;;;;;;;;;;5016478;28;20445;-86
2022/07/07 14:53:49;;;;;;;;;;;;;;;;;;5017240;28;20012;-86
2022/07/07 14:56:14;;;;;;;;;;;;;;;;;;5014058;28;19924;-87
2022/07/07 14:58:40;;;;;;;;;;;;;;;;;;5015117;28;19968;-85
2022/07/07 15:01:05;;;;;;;;;;;;;;;;;;5016180;28;19960;-86
2022/07/07 15:03:30;;;;;;;;;;;;;;;;;;5016406;28;19947;-86
2022/07/07 15:05:55;;;;;;;;;;;;;;;;;;5014046;28;19996;-86
2022/07/07 15:08:20;;;;;;;;;;;;;;;;;;5011703;28;19922;-85
2022/07/07 15:10:46;;;;;;;;;;;;;;;;;;5001074;28;19993;-87
2022/07/07 15:13:14;;;;;;;;;;;;;;;;;;5014370;28;19917;-86
2022/07/07 15:15:39;;;;;;;;;;;;;;;;;;5014841;28;20425;-88
2022/07/07 15:18:05;;;;;;;;;;;;;;;;;;5012919;28;19914;-86
2022/07/07 15:20:30;;;;;;;;;;;;;;;;;;5012685;28;19964;-85
2022/07/07 15:22:55;;;;;;;;;;;;;;;;;;5013030;28;20260;-86
2022/07/07 15:25:21;;;;;;;;;;;;;;;;;;5012767;28;19918;-85
2022/07/07 15:27:47;;;;;;;;;;;;;;;;;;5012070;28;19925;-86
2022/07/07 15:30:13;;;;;;;;;;;;;;;;;;5019619;28;20090;-86
2022/07/07 15:32:38;;;;;;;;;;;;;;;;;;5021943;28;19925;-87
2022/07/07 15:35:03;;;;;;;;;;;;;;;;;;5019222;28;20437;-86
2022/07/07 15:37:28;;;;;;;;;;;;;;;;;;5016264;28;19924;-86
2022/07/07 15:39:53;;;;;;;;;;;;;;;;;;5016209;28;19922;-86
2022/07/07 15:42:21;;;;;;;;;;;;;;;;;;5014392;28;19917;-86
2022/07/07 15:44:46;;;;;;;;;;;;;;;;;;5014856;28;19921;-86
2022/07/07 15:47:11;;;;;;;;;;;;;;;;;;5019162;28;19924;-87
2022/07/07 15:49:37;;;;;;;;;;;;;;;;;;5008698;28;19925;-87
2022/07/07 15:52:02;;;;;;;;;;;;;;;;;;5020006;28;20338;-87
2022/07/07 15:54:27;;;;;;;;;;;;;;;;;;5021217;28;19937;-86
2022/07/07 15:56:52;;;;;;;;;;;;;;;;;;5017871;28;19917;-86
2022/07/07 15:59:17;;;;;;;;;;;;;;;;;;5018052;28;20334;-86
2022/07/07 16:01:45;;;;;;;;;;;;;;;;;;5022969;28;20450;-86
2022/07/07 16:06:54;;;;;;;;;;;;;;;;;;5017858;28;20421;-88
2022/07/07 16:09:19;;;;;;;;;;;;;;;;;;5012607;28;20044;-86
2022/07/07 16:11:45;;;;;;;;;;;;;;;;;;5014005;28;19918;-86
2022/07/07 16:14:10;;;;;;;;;;;;;;;;;;5012299;28;19928;-86
2022/07/07 16:16:35;;;;;;;;;;;;;;;;;;5014579;28;19913;-87
2022/07/07 16:19:00;;;;;;;;;;;;;;;;;;5017742;28;19921;-87
2022/07/07 16:21:26;;;;;;;;;;;;;;;;;;5013177;28;19913;-86
2022/07/07 16:23:51;;;;;;;;;;;;;;;;;;5015741;28;19922;-87
2022/07/07 16:26:16;;;;;;;;;;;;;;;;;;5015472;28;19917;-86
2022/07/07 16:28:41;;;;;;;;;;;;;;;;;;5010624;28;20295;-87
2022/07/07 16:31:07;;;;;;;;;;;;;;;;;;5015142;28;19917;-86
2022/07/07 16:33:32;;;;;;;;;;;;;;;;;;5013958;28;19913;-86
2022/07/07 16:35:57;;;;;;;;;;;;;;;;;;5011597;28;19953;-88
2022/07/07 16:38:22;;;;;;;;;;;;;;;;;;5011021;28;19921;-88
2022/07/07 16:40:48;;;;;;;;;;;;;;;;;;5013787;28;19924;-86
2022/07/07 16:43:13;;;;;;;;;;;;;;;;;;5001563;28;19925;-88
2022/07/07 16:45:39;;;;;;;;;;;;;;;;;;5015056;28;19960;-87
2022/07/07 16:48:04;;;;;;;;;;;;;;;;;;5011798;28;20035;-86
2022/07/07 16:50:29;;;;;;;;;;;;;;;;;;5014603;28;20387;-86
2022/07/07 16:52:55;;;;;;;;;;;;;;;;;;5010092;28;19951;-86
2022/07/07 16:55:20;;;;;;;;;;;;;;;;;;5012608;28;19921;-86
2022/07/07 16:57:45;;;;;;;;;;;;;;;;;;5012867;28;19969;-88
2022/07/07 17:00:10;;;;;;;;;;;;;;;;;;5014305;28;19919;-87
2022/07/07 17:02:35;;;;;;;;;;;;;;;;;;5015460;28;19929;-87
2022/07/07 17:05:00;;;;;;;;;;;;;;;;;;5020371;28;20382;-88
2022/07/07 17:07:26;;;;;;;;;;;;;;;;;;4999282;28;19967;-88
2022/07/07 17:09:51;;;;;;;;;;;;;;;;;;5019144;28;20170;-86
2022/07/07 17:12:16;;;;;;;;;;;;;;;;;;5018908;28;19913;-87
2022/07/07 17:14:41;;;;;;;;;;;;;;;;;;5014245;28;19928;-88